Time;durP1;ratioP1;P1;durP2;ratioP2;P2;SDS_P1;SDS_P2;PMS_P1;PMS_P2;Temp;Humidity;BMP_temperature;BMP_pressure;BME280_temperature;BME280_humidity;BME280_pressure;Samples;Min_cycle;Max_cycle;Signal;HPM_P1;HPM_P2
2022/12/20 00:00:52;;;;;;;14.10;7.80;;;10.30;99.90;;;;;;5009999;28;20473;-61
2022/12/20 00:03:20;;;;;;;19.23;6.40;;;10.30;99.90;;;;;;5016134;28;20475;-61
2022/12/20 00:05:47;;;;;;;18.73;10.10;;;10.20;99.90;;;;;;5013285;28;20488;-61
2022/12/20 00:08:14;;;;;;;16.50;8.07;;;10.10;99.90;;;;;;5009778;28;20485;-61
2022/12/20 00:10:44;;;;;;;24.33;10.33;;;9.80;99.90;;;;;;5020491;28;20480;-61
2022/12/20 00:13:12;;;;;;;12.60;7.10;;;9.70;99.90;;;;;;5010493;28;20509;-61
2022/12/20 00:15:39;;;;;;;24.83;11.47;;;;;;;;;;5009394;28;21137;-61
2022/12/20 00:18:06;;;;;;;20.70;9.83;;;9.50;99.90;;;;;;5017478;28;20910;-61
2022/12/20 00:20:34;;;;;;;14.97;8.50;;;9.30;99.90;;;;;;5004559;28;20481;-61
2022/12/20 00:23:01;;;;;;;15.63;7.27;;;9.30;99.90;;;;;;4995212;28;20485;-61
2022/12/20 00:25:27;;;;;;;10.60;5.60;;;9.20;99.90;;;;;;5010597;28;20478;-61
2022/12/20 00:27:55;;;;;;;13.33;6.93;;;9.10;99.90;;;;;;5007576;28;20468;-60
2022/12/20 00:30:22;;;;;;;19.47;9.27;;;9.00;99.90;;;;;;5017158;28;20481;-61
2022/12/20 00:32:49;;;;;;;19.13;9.57;;;8.90;99.90;;;;;;5017841;28;20871;-61
2022/12/20 00:35:16;;;;;;;19.93;9.43;;;8.90;99.90;;;;;;5009870;28;20480;-61
2022/12/20 00:37:42;;;;;;;22.97;10.20;;;8.90;99.90;;;;;;5009556;28;20474;-61
2022/12/20 00:40:10;;;;;;;18.57;8.90;;;9.00;99.90;;;;;;5010098;28;20496;-61
2022/12/20 00:42:36;;;;;;;13.90;7.13;;;9.00;99.90;;;;;;5013671;28;20887;-61
2022/12/20 00:45:05;;;;;;;16.70;8.10;;;9.20;99.90;;;;;;5021451;28;20485;-61
2022/12/20 00:47:32;;;;;;;20.07;8.30;;;9.20;99.90;;;;;;5008879;28;20480;-61
2022/12/20 00:49:59;;;;;;;19.33;10.10;;;9.30;99.90;;;;;;5011180;28;20489;-61
2022/12/20 00:52:25;;;;;;;14.03;7.03;;;9.30;99.90;;;;;;5012622;28;20481;-61
2022/12/20 00:54:52;;;;;;;13.07;6.37;;;9.30;99.90;;;;;;5011961;28;20998;-61
2022/12/20 00:57:19;;;;;;;16.63;9.17;;;9.40;99.90;;;;;;5019505;28;20469;-61
2022/12/20 00:59:45;;;;;;;25.00;12.03;;;9.30;99.90;;;;;;5011176;28;20757;-61
2022/12/20 01:02:13;;;;;;;11.40;6.63;;;9.20;99.90;;;;;;5010562;28;20496;-61
2022/12/20 01:04:40;;;;;;;21.73;10.53;;;9.10;99.90;;;;;;5010053;28;20496;-61
2022/12/20 01:07:07;;;;;;;16.67;7.97;;;9.00;99.90;;;;;;5016024;28;20497;-61
2022/12/20 01:09:34;;;;;;;20.80;9.43;;;9.00;99.90;;;;;;5012324;28;20485;-61
2022/12/20 01:12:00;;;;;;;14.80;6.47;;;9.00;99.90;;;;;;5020413;28;20480;-61
2022/12/20 01:14:27;;;;;;;16.00;7.60;;;;;;;;;;5037136;28;20513;-61
2022/12/20 01:16:54;;;;;;;13.07;7.27;;;9.00;99.90;;;;;;5026089;28;21017;-61
2022/12/20 01:19:22;;;;;;;17.37;8.77;;;9.00;99.90;;;;;;5008684;28;20793;-61
2022/12/20 01:21:49;;;;;;;20.33;9.20;;;9.00;99.90;;;;;;5017825;28;20481;-61
2022/12/20 01:24:19;;;;;;;21.67;9.87;;;8.90;99.90;;;;;;5030465;28;20496;-61
2022/12/20 01:26:47;;;;;;;29.43;12.73;;;8.90;99.90;;;;;;5006676;28;20936;-61
2022/12/20 01:29:14;;;;;;;16.27;7.37;;;8.90;99.90;;;;;;5010702;28;20481;-61
2022/12/20 01:31:41;;;;;;;26.63;11.97;;;8.90;99.90;;;;;;5012236;28;20508;-61
2022/12/20 01:34:08;;;;;;;18.27;7.83;;;8.80;99.90;;;;;;5020423;28;20761;-61
2022/12/20 01:36:38;;;;;;;23.93;9.80;;;9.60;99.90;;;;;;5011672;28;21217;-60
2022/12/20 01:39:07;;;;;;;18.47;8.70;;;8.80;99.90;;;;;;5018066;28;20476;-61
2022/12/20 01:41:36;;;;;;;24.03;10.70;;;8.80;99.90;;;;;;5013329;28;20474;-61
2022/12/20 01:44:05;;;;;;;26.73;9.67;;;8.80;99.90;;;;;;5009057;28;20481;-61
2022/12/20 01:46:33;;;;;;;27.07;13.87;;;8.80;99.90;;;;;;5009921;28;20477;-61
2022/12/20 01:49:04;;;;;;;27.77;13.87;;;8.70;99.90;;;;;;5013912;28;20806;-60
2022/12/20 01:51:32;;;;;;;67.63;37.97;;;;;;;;;;5011736;28;20472;-60
2022/12/20 01:54:06;;;;;;;26.13;13.67;;;8.60;99.90;;;;;;5016300;28;20473;-61
2022/12/20 01:56:34;;;;;;;40.90;13.40;;;8.50;99.90;;;;;;5007317;28;20988;-61
2022/12/20 01:59:01;;;;;;;39.87;18.90;;;8.50;99.90;;;;;;5014012;28;20488;-60
2022/12/20 02:01:28;;;;;;;39.57;16.60;;;8.40;99.90;;;;;;5018281;28;20556;-61
2022/12/20 02:03:55;;;;;;;30.53;8.30;;;8.30;99.90;;;;;;5014577;28;20477;-61
2022/12/20 02:06:26;;;;;;;28.13;10.67;;;8.30;99.90;;;;;;5023308;28;20843;-61
2022/12/20 02:08:56;;;;;;;29.77;8.87;;;8.20;99.90;;;;;;5013684;28;20578;-60
2022/12/20 02:11:46;;;;;;;25.93;7.03;;;8.00;99.90;;;;;;5017728;28;20475;-61
2022/12/20 02:14:23;;;;;;;27.80;7.97;;;7.80;99.90;;;;;;5034675;28;20611;-61
2022/12/20 02:16:57;;;;;;;48.90;11.40;;;7.80;99.90;;;;;;5030452;28;21023;-61
2022/12/20 02:19:46;;;;;;;28.17;8.87;;;7.70;99.90;;;;;;5019297;28;20475;-61
2022/12/20 02:22:22;;;;;;;41.40;9.33;;;7.60;99.90;;;;;;5015795;28;21053;-61
2022/12/20 02:25:10;;;;;;;61.63;11.80;;;7.70;99.90;;;;;;5016701;28;20492;-61
2022/12/20 02:27:48;;;;;;;69.17;13.67;;;7.60;99.90;;;;;;5008842;28;20787;-60
2022/12/20 02:30:18;;;;;;;38.93;8.57;;;7.60;99.90;;;;;;5021487;28;20492;-61
2022/12/20 02:32:51;;;;;;;49.40;11.27;;;7.60;99.90;;;;;;5025140;28;20584;-61
2022/12/20 02:35:23;;;;;;;32.23;8.83;;;7.50;99.90;;;;;;5014710;28;20477;-60
2022/12/20 02:37:51;;;;;;;37.20;10.70;;;7.60;99.90;;;;;;5016123;28;20481;-60
2022/12/20 02:40:23;;;;;;;27.73;7.97;;;8.50;99.90;;;;;;5008249;28;20492;-61
2022/12/20 02:42:53;;;;;;;29.50;9.67;;;7.60;99.90;;;;;;5014628;28;20500;-60
2022/12/20 02:45:24;;;;;;;24.23;7.87;;;7.50;99.90;;;;;;5023835;28;20477;-60
2022/12/20 02:47:55;;;;;;;26.57;7.93;;;7.50;99.90;;;;;;5019654;28;20485;-60
2022/12/20 02:50:26;;;;;;;26.93;8.13;;;7.30;99.90;;;;;;5014505;28;20477;-60
2022/12/20 02:52:54;;;;;;;27.60;8.10;;;7.30;99.90;;;;;;5019641;28;21048;-61
2022/12/20 02:55:27;;;;;;;26.73;7.53;;;7.20;99.90;;;;;;5007579;28;20489;-60
2022/12/20 02:58:00;;;;;;;26.00;7.63;;;7.00;99.90;;;;;;5007987;28;20486;-61
2022/12/20 03:00:34;;;;;;;22.43;7.53;;;6.90;99.90;;;;;;5015312;28;20483;-60
2022/12/20 03:05:48;;;;;;;47.77;12.30;;;6.80;99.90;;;;;;5027071;28;20479;-60
2022/12/20 03:08:15;;;;;;;27.10;7.60;;;6.80;99.90;;;;;;5016475;28;20950;-60
2022/12/20 03:10:42;;;;;;;41.67;10.30;;;6.80;99.90;;;;;;5012603;28;20602;-60
2022/12/20 03:13:08;;;;;;;36.27;9.13;;;6.80;99.90;;;;;;4993695;28;20841;-60
2022/12/20 03:15:36;;;;;;;48.40;11.43;;;6.70;99.90;;;;;;5033368;28;20490;-59
2022/12/20 03:18:04;;;;;;;45.07;10.30;;;6.70;99.90;;;;;;5015513;28;20477;-60
2022/12/20 03:20:31;;;;;;;39.23;8.53;;;6.70;99.90;;;;;;5013433;28;20997;-60
2022/12/20 03:22:57;;;;;;;33.03;8.73;;;6.70;99.90;;;;;;5014256;28;20486;-59
2022/12/20 03:25:24;;;;;;;34.67;8.37;;;6.60;99.90;;;;;;5016268;28;20500;-59
2022/12/20 03:27:51;;;;;;;39.37;8.00;;;;;;;;;;5012478;28;20485;-60
2022/12/20 03:30:18;;;;;;;38.53;8.77;;;6.60;99.90;;;;;;5013042;28;20857;-60
2022/12/20 03:32:46;;;;;;;57.23;12.13;;;6.50;99.90;;;;;;5013080;28;20952;-60
2022/12/20 03:35:13;;;;;;;41.13;9.70;;;6.30;99.90;;;;;;5020633;28;20977;-59
2022/12/20 03:37:40;;;;;;;56.07;13.10;;;6.10;99.90;;;;;;5022121;28;20481;-59
2022/12/20 03:40:09;;;;;;;53.17;11.40;;;6.00;99.90;;;;;;5013367;28;20488;-60
2022/12/20 03:42:36;;;;;;;18.97;7.20;;;5.90;99.90;;;;;;5013535;28;20493;-60
2022/12/20 03:45:03;;;;;;;36.13;8.97;;;6.00;99.90;;;;;;5016210;28;20488;-60
2022/12/20 03:47:30;;;;;;;33.03;8.50;;;;;;;;;;5013875;28;20501;-60
2022/12/20 03:49:58;;;;;;;51.73;12.10;;;5.30;99.90;;;;;;5012624;28;20481;-59
2022/12/20 03:52:25;;;;;;;30.63;8.30;;;6.20;99.90;;;;;;5018047;28;20489;-60
2022/12/20 03:54:51;;;;;;;39.03;9.10;;;6.30;99.90;;;;;;5011410;28;20948;-59
2022/12/20 03:57:18;;;;;;;38.33;7.90;;;6.30;99.90;;;;;;5009910;28;20488;-59
2022/12/20 03:59:45;;;;;;;63.07;13.20;;;6.30;99.90;;;;;;5012412;28;20481;-59
2022/12/20 04:02:12;;;;;;;33.40;8.37;;;6.20;99.90;;;;;;5010061;28;20469;-59
2022/12/20 04:04:38;;;;;;;35.93;10.43;;;6.10;99.90;;;;;;5012126;28;20489;-59
2022/12/20 04:07:07;;;;;;;25.17;7.20;;;6.10;99.90;;;;;;5022872;28;21236;-59
2022/12/20 04:09:34;;;;;;;45.77;10.63;;;6.00;99.90;;;;;;5048567;28;20483;-59
2022/12/20 04:12:01;;;;;;;48.47;9.60;;;6.30;99.90;;;;;;5012650;28;20962;-59
2022/12/20 04:14:27;;;;;;;33.37;8.43;;;6.10;99.90;;;;;;5017300;28;20484;-59
2022/12/20 04:16:54;;;;;;;26.90;7.07;;;6.20;99.90;;;;;;5021168;28;20485;-59
2022/12/20 04:19:21;;;;;;;18.70;6.10;;;6.20;99.90;;;;;;5008504;28;20472;-59
2022/12/20 04:21:47;;;;;;;51.37;11.83;;;6.20;99.90;;;;;;5013157;28;20473;-59
2022/12/20 04:24:16;;;;;;;34.90;9.13;;;6.30;99.90;;;;;;5020890;28;20983;-60
2022/12/20 04:26:42;;;;;;;60.30;10.93;;;6.20;99.90;;;;;;5028591;28;20511;-60
2022/12/20 04:29:09;;;;;;;26.77;7.40;;;6.10;99.90;;;;;;5043377;28;20537;-60
2022/12/20 04:31:36;;;;;;;60.80;13.70;;;6.00;99.90;;;;;;5022208;28;20491;-60
2022/12/20 04:34:03;;;;;;;37.67;9.03;;;6.00;99.90;;;;;;5024194;28;21039;-60
2022/12/20 04:36:29;;;;;;;25.27;7.70;;;5.80;99.90;;;;;;5011714;28;21001;-60
2022/12/20 04:38:56;;;;;;;24.33;6.93;;;5.80;99.90;;;;;;5017507;28;20837;-59
2022/12/20 04:41:25;;;;;;;31.87;8.07;;;5.70;99.90;;;;;;5020644;28;20488;-60
2022/12/20 04:43:54;;;;;;;45.30;10.23;;;5.80;99.90;;;;;;5021378;28;20489;-60
2022/12/20 04:46:22;;;;;;;40.10;10.63;;;5.90;99.90;;;;;;5009846;28;20504;-60
2022/12/20 04:48:49;;;;;;;49.10;8.90;;;5.90;99.90;;;;;;5009219;28;20613;-60
2022/12/20 04:51:16;;;;;;;27.60;7.60;;;5.90;99.90;;;;;;5021502;28;20464;-60
2022/12/20 04:53:48;;;;;;;53.07;13.93;;;6.00;99.90;;;;;;5026423;28;21007;-60
2022/12/20 04:56:19;;;;;;;19.07;5.20;;;6.20;99.90;;;;;;5023473;28;20476;-60
2022/12/20 04:58:49;;;;;;;37.20;10.10;;;6.30;99.90;;;;;;5019602;28;20831;-60
2022/12/20 05:01:16;;;;;;;24.83;7.57;;;6.30;99.90;;;;;;5029291;28;20996;-60
2022/12/20 05:03:44;;;;;;;50.77;11.87;;;6.40;99.90;;;;;;5025411;28;20907;-60
2022/12/20 05:06:10;;;;;;;21.57;6.20;;;6.30;99.90;;;;;;5014810;28;20497;-60
2022/12/20 05:08:38;;;;;;;46.87;12.03;;;6.30;99.90;;;;;;5014697;28;20485;-60
2022/12/20 05:11:05;;;;;;;30.23;8.60;;;6.20;99.90;;;;;;5013624;28;20936;-59
2022/12/20 05:13:32;;;;;;;27.00;8.50;;;6.20;99.90;;;;;;5014265;28;21164;-60
2022/12/20 05:16:00;;;;;;;42.33;8.77;;;6.20;99.90;;;;;;5015478;28;20818;-60
2022/12/20 05:18:28;;;;;;;30.33;7.90;;;6.30;99.90;;;;;;5015263;28;20484;-60
2022/12/20 05:26:25;;;;;;;25.13;7.33;;;6.50;99.90;;;;;;5021470;28;20499;-59
2022/12/20 05:28:52;;;;;;;36.00;9.23;;;6.30;99.90;;;;;;5030847;28;20479;-60
2022/12/20 05:31:20;;;;;;;27.20;8.37;;;6.20;99.90;;;;;;5033801;28;20928;-60
2022/12/20 05:33:47;;;;;;;42.50;12.03;;;6.20;99.90;;;;;;5035452;28;20650;-59
2022/12/20 05:36:14;;;;;;;19.07;7.60;;;6.20;99.90;;;;;;5034478;28;20480;-59
2022/12/20 05:38:40;;;;;;;24.37;8.30;;;6.20;99.90;;;;;;5033715;28;21136;-59
2022/12/20 05:41:07;;;;;;;24.27;8.27;;;6.20;99.90;;;;;;5024783;28;20484;-59
2022/12/20 05:43:34;;;;;;;30.80;8.97;;;6.30;99.90;;;;;;5035027;28;20772;-59
2022/12/20 05:46:01;;;;;;;19.63;6.70;;;6.30;99.90;;;;;;5020029;28;20694;-59
2022/12/20 05:48:29;;;;;;;21.33;7.63;;;6.40;99.90;;;;;;5015302;28;20477;-59
2022/12/20 05:50:56;;;;;;;19.73;7.50;;;6.50;99.90;;;;;;5012912;28;20469;-58
2022/12/20 05:53:23;;;;;;;22.43;7.77;;;6.50;99.90;;;;;;5016972;28;20477;-59
2022/12/20 05:55:51;;;;;;;30.97;9.10;;;;;;;;;;5018097;28;20479;-59
2022/12/20 05:58:18;;;;;;;20.53;7.83;;;6.70;99.90;;;;;;5016565;28;20824;-59
2022/12/20 06:00:46;;;;;;;49.53;14.30;;;6.70;99.90;;;;;;5025119;28;21194;-59
2022/12/20 06:03:13;;;;;;;24.83;6.63;;;6.80;99.90;;;;;;5032829;28;20484;-60
2022/12/20 06:05:43;;;;;;;40.60;12.33;;;6.80;99.90;;;;;;5037000;28;20516;-59
2022/12/20 06:08:11;;;;;;;22.73;8.63;;;6.80;99.90;;;;;;5035206;28;20484;-59
2022/12/20 06:10:39;;;;;;;37.37;10.80;;;6.90;99.90;;;;;;5031954;28;20492;-59
2022/12/20 06:13:06;;;;;;;23.77;8.87;;;6.90;99.90;;;;;;5030586;28;20484;-59
2022/12/20 06:15:33;;;;;;;26.13;8.97;;;6.90;99.90;;;;;;5034456;28;20479;-60
2022/12/20 06:18:00;;;;;;;22.83;6.17;;;6.80;99.90;;;;;;5035010;28;20884;-59
2022/12/20 06:20:27;;;;;;;26.37;9.20;;;6.80;99.90;;;;;;5033272;28;20555;-59
2022/12/20 06:22:56;;;;;;;61.63;28.27;;;6.90;99.90;;;;;;5035928;28;20604;-59
2022/12/20 06:25:23;;;;;;;67.97;32.90;;;6.90;99.90;;;;;;5021394;28;20488;-59
2022/12/20 06:27:49;;;;;;;138.80;51.70;;;7.00;99.90;;;;;;5040441;28;20964;-59
2022/12/20 06:30:17;;;;;;;59.20;26.03;;;7.00;99.90;;;;;;5028510;28;20472;-59
2022/12/20 06:32:44;;;;;;;85.03;35.20;;;7.00;99.90;;;;;;5023838;28;20476;-59
2022/12/20 06:35:11;;;;;;;59.57;27.70;;;7.10;99.90;;;;;;5040515;28;20484;-59
2022/12/20 06:37:39;;;;;;;59.60;24.50;;;7.10;99.90;;;;;;5036460;28;20511;-59
2022/12/20 06:40:09;;;;;;;26.47;12.53;;;7.10;99.90;;;;;;5036185;28;20484;-59
2022/12/20 06:42:35;;;;;;;35.83;14.60;;;7.10;99.90;;;;;;5036521;28;20487;-59
2022/12/20 06:45:02;;;;;;;20.03;8.60;;;7.00;99.90;;;;;;5037303;28;20476;-59
2022/12/20 06:47:29;;;;;;;27.30;10.90;;;7.00;99.90;;;;;;5038212;28;20475;-58
2022/12/20 06:49:55;;;;;;;42.20;18.20;;;7.00;99.90;;;;;;5019839;28;20487;-59
2022/12/20 06:52:23;;;;;;;29.10;14.17;;;7.10;99.90;;;;;;5016846;28;20476;-59
2022/12/20 06:54:49;;;;;;;35.43;11.70;;;9.30;99.90;;;;;;5026708;28;20492;-59
2022/12/20 06:57:18;;;;;;;27.07;9.53;;;7.10;99.90;;;;;;5019688;28;20484;-60
2022/12/20 06:59:45;;;;;;;29.20;9.60;;;7.00;99.90;;;;;;5013853;28;20485;-59
2022/12/20 07:02:12;;;;;;;24.33;8.60;;;7.00;99.90;;;;;;5012024;28;20477;-59
2022/12/20 07:04:38;;;;;;;39.30;14.17;;;7.00;99.90;;;;;;5032378;28;20492;-59
2022/12/20 07:07:05;;;;;;;23.90;10.30;;;7.10;99.90;;;;;;5017645;28;20516;-59
2022/12/20 07:09:32;;;;;;;25.97;12.03;;;7.20;99.90;;;;;;5018202;28;20733;-60
2022/12/20 07:11:59;;;;;;;36.80;18.60;;;7.20;99.90;;;;;;5017078;28;20470;-59
2022/12/20 07:14:27;;;;;;;35.53;17.87;;;7.30;99.90;;;;;;5018138;28;20880;-60
2022/12/20 07:16:54;;;;;;;28.87;11.07;;;7.50;99.90;;;;;;5015859;28;21000;-59
2022/12/20 07:19:21;;;;;;;27.80;13.67;;;7.50;99.90;;;;;;5017027;28;20481;-59
2022/12/20 07:21:48;;;;;;;44.20;17.10;;;7.60;99.90;;;;;;5014323;28;21056;-59
2022/12/20 07:24:14;;;;;;;39.60;13.83;;;7.70;99.90;;;;;;5018105;28;20698;-59
2022/12/20 07:26:43;;;;;;;44.77;19.07;;;7.70;99.90;;;;;;5016768;28;20486;-59
2022/12/20 07:29:10;;;;;;;27.30;13.57;;;7.80;99.90;;;;;;5025539;28;20481;-60
2022/12/20 07:31:38;;;;;;;40.03;15.60;;;7.80;99.90;;;;;;5031380;28;20969;-60
2022/12/20 07:34:04;;;;;;;30.60;13.50;;;7.80;99.90;;;;;;5038540;28;20537;-59
2022/12/20 07:36:31;;;;;;;26.00;10.57;;;7.80;99.90;;;;;;5036998;28;20484;-58
2022/12/20 07:38:58;;;;;;;38.73;15.30;;;7.80;99.90;;;;;;5025304;28;20892;-59
2022/12/20 07:41:25;;;;;;;29.07;13.03;;;8.00;99.90;;;;;;5021196;28;20485;-59
2022/12/20 07:43:51;;;;;;;20.60;9.67;;;8.10;99.90;;;;;;5016687;28;20485;-59
2022/12/20 07:46:18;;;;;;;33.53;13.23;;;8.30;99.90;;;;;;5016412;28;20489;-59
2022/12/20 07:48:46;;;;;;;36.43;15.87;;;8.30;99.90;;;;;;5016944;28;20481;-59
2022/12/20 07:51:17;;;;;;;26.93;12.00;;;8.30;99.90;;;;;;5016639;28;20482;-59
2022/12/20 07:53:48;;;;;;;28.20;13.40;;;8.20;99.90;;;;;;5018697;28;20583;-59
2022/12/20 07:56:16;;;;;;;27.13;12.57;;;8.20;99.90;;;;;;5018125;28;20852;-59
2022/12/20 07:58:44;;;;;;;27.80;14.30;;;8.30;99.90;;;;;;5021936;28;20475;-59
2022/12/20 08:01:12;;;;;;;16.10;10.43;;;8.30;99.90;;;;;;5031177;28;20483;-58
2022/12/20 08:03:44;;;;;;;24.53;14.30;;;8.40;99.90;;;;;;5036381;28;20579;-60
2022/12/20 08:06:13;;;;;;;14.80;10.20;;;8.40;99.90;;;;;;5035943;28;20837;-59
2022/12/20 08:08:45;;;;;;;24.50;14.10;;;8.40;99.90;;;;;;5037084;28;20811;-59
2022/12/20 08:11:12;;;;;;;16.37;11.87;;;8.40;99.90;;;;;;5037138;28;20473;-59
2022/12/20 08:13:39;;;;;;;18.17;12.00;;;8.50;99.90;;;;;;5036537;28;20487;-59
2022/12/20 08:16:07;;;;;;;12.13;8.37;;;8.50;99.90;;;;;;5038632;28;20756;-59
2022/12/20 08:18:34;;;;;;;8.77;6.33;;;8.50;99.90;;;;;;5039479;28;20476;-59
2022/12/20 08:21:00;;;;;;;18.43;8.40;;;8.60;99.90;;;;;;5038342;28;20472;-60
2022/12/20 08:23:29;;;;;;;11.97;8.23;;;8.60;99.90;;;;;;5037126;28;20571;-60
2022/12/20 08:25:55;;;;;;;7.73;6.60;;;8.70;99.90;;;;;;5036949;28;20807;-59
2022/12/20 08:28:22;;;;;;;16.83;7.67;;;8.80;99.90;;;;;;5034648;28;20475;-59
2022/12/20 08:30:49;;;;;;;12.17;9.03;;;9.10;99.90;;;;;;5029116;28;20849;-60
2022/12/20 08:33:16;;;;;;;12.00;8.17;;;9.40;99.90;;;;;;5034256;28;20483;-59
2022/12/20 08:35:43;;;;;;;16.73;9.37;;;9.60;99.90;;;;;;5026914;28;20477;-59
2022/12/20 08:38:09;;;;;;;22.37;15.27;;;9.80;99.90;;;;;;5033009;28;20484;-60
2022/12/20 08:40:37;;;;;;;16.87;9.23;;;9.80;99.90;;;;;;5030619;28;20983;-60
2022/12/20 08:43:04;;;;;;;11.20;6.07;;;9.80;99.90;;;;;;5037556;28;20482;-59
2022/12/20 08:45:31;;;;;;;8.63;4.80;;;9.70;99.90;;;;;;5032804;28;21055;-59
2022/12/20 08:47:57;;;;;;;12.97;5.70;;;9.70;99.90;;;;;;5032717;28;20560;-60
2022/12/20 08:50:25;;;;;;;16.57;8.80;;;9.60;99.90;;;;;;5032332;28;20736;-60
2022/12/20 08:52:52;;;;;;;9.30;6.20;;;9.50;99.90;;;;;;5026291;28;20503;-59
2022/12/20 08:55:19;;;;;;;8.23;6.50;;;9.50;99.90;;;;;;5056356;28;20485;-60
2022/12/20 08:57:47;;;;;;;17.90;8.53;;;9.40;99.90;;;;;;5024074;28;20992;-60
2022/12/20 09:00:14;;;;;;;12.90;8.23;;;9.50;99.90;;;;;;5017666;28;20492;-59
2022/12/20 09:02:41;;;;;;;11.73;8.93;;;9.50;99.90;;;;;;5021049;28;20516;-60
2022/12/20 09:05:09;;;;;;;13.40;6.57;;;9.60;99.90;;;;;;5039432;28;20992;-60
2022/12/20 09:07:35;;;;;;;16.30;8.97;;;9.60;99.90;;;;;;5006542;28;20492;-60
2022/12/20 09:10:02;;;;;;;12.10;8.97;;;9.70;99.90;;;;;;5013097;28;21086;-60
2022/12/20 09:12:29;;;;;;;14.77;5.63;;;9.80;99.90;;;;;;5028493;28;20494;-60
2022/12/20 09:14:57;;;;;;;8.77;7.13;;;9.80;99.90;;;;;;5011692;28;20888;-60
2022/12/20 09:17:24;;;;;;;7.13;5.70;;;9.90;99.90;;;;;;5011803;28;20527;-60
2022/12/20 09:19:50;;;;;;;17.27;8.87;;;9.90;99.90;;;;;;5024784;28;20479;-60
2022/12/20 09:22:17;;;;;;;11.90;5.70;;;10.00;99.90;;;;;;5033158;28;20468;-60
2022/12/20 09:24:44;;;;;;;17.63;11.00;;;10.00;99.90;;;;;;5035314;28;20499;-60
2022/12/20 09:27:10;;;;;;;26.43;10.23;;;10.10;99.90;;;;;;5015734;28;20492;-60
2022/12/20 09:29:37;;;;;;;70.80;27.47;;;10.10;99.90;;;;;;5030704;28;20886;-60
2022/12/20 09:32:06;;;;;;;36.03;24.80;;;10.10;99.90;;;;;;5037524;28;20544;-60
2022/12/20 09:34:33;;;;;;;40.67;21.67;;;10.30;99.90;;;;;;5028217;28;20489;-60
2022/12/20 09:36:59;;;;;;;20.73;7.90;;;10.40;99.90;;;;;;5032972;28;21050;-59
2022/12/20 09:39:26;;;;;;;9.10;6.40;;;10.50;99.90;;;;;;5031861;28;20538;-60
2022/12/20 09:41:53;;;;;;;11.60;5.20;;;10.60;99.90;;;;;;5020578;28;20491;-60
2022/12/20 09:44:23;;;;;;;8.03;5.67;;;10.70;99.90;;;;;;5040855;28;20565;-60
2022/12/20 09:46:54;;;;;;;7.37;5.83;;;10.80;99.90;;;;;;5021685;28;20483;-61
2022/12/20 09:49:31;;;;;;;7.23;5.73;;;10.90;99.90;;;;;;5036190;28;20476;-60
2022/12/20 09:52:14;;;;;;;7.23;5.23;;;11.00;99.90;;;;;;5033548;28;20484;-60
2022/12/20 09:54:52;;;;;;;9.73;7.63;;;11.10;99.90;;;;;;5032439;28;20480;-60
2022/12/20 09:57:29;;;;;;;5.67;4.40;;;11.20;99.90;;;;;;5023717;28;20803;-60
2022/12/20 09:59:56;;;;;;;6.77;5.50;;;11.30;99.90;;;;;;5026620;28;21186;-60
2022/12/20 10:02:25;;;;;;;5.80;5.17;;;11.40;99.90;;;;;;5031066;28;20866;-60
2022/12/20 10:04:54;;;;;;;17.13;4.70;;;11.50;99.90;;;;;;5025498;28;20484;-59
2022/12/20 10:07:33;;;;;;;4.97;4.50;;;11.60;99.90;;;;;;5047746;28;20476;-61
2022/12/20 10:10:22;;;;;;;7.83;6.17;;;11.80;99.90;;;;;;5019758;28;20887;-60
2022/12/20 10:12:56;;;;;;;7.73;5.53;;;11.90;99.90;;;;;;5026293;28;20461;-61
2022/12/20 10:15:28;;;;;;;10.97;4.23;;;12.10;99.90;;;;;;5035581;28;20476;-61
2022/12/20 10:18:16;;;;;;;10.13;4.60;;;12.20;99.90;;;;;;5038764;28;20841;-61
2022/12/20 10:20:57;;;;;;;11.60;5.03;;;12.20;99.90;;;;;;5021375;28;20792;-61
2022/12/20 10:23:30;;;;;;;6.30;4.53;;;12.20;99.90;;;;;;5029776;28;20498;-61
2022/12/20 10:25:58;;;;;;;7.83;3.63;;;12.30;99.90;;;;;;5037800;28;20480;-60
2022/12/20 10:28:28;;;;;;;6.63;5.07;;;12.30;99.90;;;;;;5018794;28;20479;-60
2022/12/20 10:30:56;;;;;;;4.50;3.80;;;12.30;99.90;;;;;;5017629;28;21033;-60
2022/12/20 10:33:24;;;;;;;5.27;4.40;;;12.40;99.90;;;;;;5018480;28;20584;-61
2022/12/20 10:35:52;;;;;;;8.60;6.13;;;12.40;99.90;;;;;;5018114;28;20480;-60
2022/12/20 10:38:19;;;;;;;9.20;5.00;;;12.40;99.90;;;;;;5019268;28;20500;-60
2022/12/20 10:40:48;;;;;;;10.17;6.83;;;12.50;99.90;;;;;;5017279;28;21108;-60
2022/12/20 10:43:18;;;;;;;4.50;3.67;;;12.40;99.90;;;;;;5034623;28;20468;-60
2022/12/20 10:45:55;;;;;;;14.23;8.53;;;12.50;99.90;;;;;;5006328;28;20646;-60
2022/12/20 10:48:27;;;;;;;4.60;4.20;;;12.50;99.90;;;;;;5039021;28;20960;-60
2022/12/20 10:50:58;;;;;;;7.70;4.60;;;12.60;99.90;;;;;;5027820;28;20768;-60
2022/12/20 10:53:26;;;;;;;6.47;4.63;;;12.60;99.90;;;;;;5036584;28;20495;-60
2022/12/20 10:55:54;;;;;;;6.93;4.83;;;12.70;99.90;;;;;;5039362;28;20572;-61
2022/12/20 10:58:34;;;;;;;5.07;3.47;;;12.80;99.90;;;;;;5040280;28;21261;-60
2022/12/20 11:01:12;;;;;;;5.10;3.63;;;12.80;99.80;;;;;;5037308;28;20491;-61
2022/12/20 11:03:57;;;;;;;5.43;4.13;;;12.90;99.80;;;;;;5033942;28;20476;-61
2022/12/20 11:06:28;;;;;;;4.10;3.70;;;12.90;99.80;;;;;;5028548;28;20477;-61
2022/12/20 11:09:20;;;;;;;11.83;4.40;;;13.00;99.70;;;;;;5034656;28;20537;-61
2022/12/20 11:12:01;;;;;;;11.33;6.30;;;13.00;99.60;;;;;;5026938;28;20477;-62
2022/12/20 11:14:28;;;;;;;11.53;4.77;;;13.10;99.60;;;;;;5029767;28;20826;-62
2022/12/20 11:16:58;;;;;;;4.83;4.30;;;13.00;99.60;;;;;;5035924;28;21063;-62
2022/12/20 11:19:47;;;;;;;20.53;4.43;;;13.10;99.70;;;;;;5035924;28;20475;-61
2022/12/20 11:22:25;;;;;;;5.03;4.63;;;13.00;99.50;;;;;;5037586;28;20950;-62
2022/12/20 11:25:00;;;;;;;6.00;5.10;;;13.10;99.70;;;;;;5029255;28;20476;-61
2022/12/20 11:27:32;;;;;;;5.33;4.03;;;13.10;99.50;;;;;;5020950;28;20896;-62
2022/12/20 11:30:13;;;;;;;17.23;6.00;;;13.10;99.40;;;;;;5017489;28;20539;-61
2022/12/20 11:33:00;;;;;;;6.83;5.67;;;13.20;99.60;;;;;;5022463;28;20797;-62
2022/12/20 11:35:35;;;;;;;7.63;4.10;;;13.40;99.60;;;;;;5008209;28;20472;-62
2022/12/20 11:38:13;;;;;;;6.40;5.70;;;13.50;99.80;;;;;;5019415;28;20524;-61
2022/12/20 11:40:46;;;;;;;7.23;5.47;;;13.60;99.90;;;;;;5017295;28;21516;-61
2022/12/20 11:43:36;;;;;;;3.53;3.20;;;13.80;99.00;;;;;;5019417;28;20891;-61
2022/12/20 11:46:19;;;;;;;15.27;5.43;;;13.80;99.00;;;;;;5021651;28;20766;-61
2022/12/20 11:49:01;;;;;;;23.03;6.87;;;13.80;98.90;;;;;;5031751;28;20906;-61
2022/12/20 11:51:37;;;;;;;5.97;4.77;;;13.80;99.10;;;;;;5020509;28;20468;-61
2022/12/20 11:54:12;;;;;;;23.30;5.10;;;13.80;98.70;;;;;;5037986;28;20562;-61
2022/12/20 11:56:43;;;;;;;7.70;6.43;;;13.90;98.90;;;;;;5034833;28;20580;-61
2022/12/20 11:59:17;;;;;;;5.70;4.60;;;13.00;98.00;;;;;;5035434;28;20941;-61
2022/12/20 12:01:48;;;;;;;7.30;5.60;;;13.90;98.50;;;;;;5036285;28;20488;-61
2022/12/20 12:04:19;;;;;;;6.00;5.17;;;14.00;98.50;;;;;;5025640;28;20546;-61
2022/12/20 12:06:51;;;;;;;13.10;4.70;;;14.10;98.40;;;;;;5023808;28;20835;-61
2022/12/20 12:09:24;;;;;;;11.83;6.20;;;14.30;98.90;;;;;;5020126;28;20473;-61
2022/12/20 12:11:55;;;;;;;12.03;4.47;;;14.40;98.80;;;;;;5020727;28;20476;-60
2022/12/20 12:14:33;;;;;;;9.37;5.23;;;14.50;98.30;;;;;;5034200;28;20511;-61
2022/12/20 12:17:06;;;;;;;5.20;3.83;;;14.50;98.10;;;;;;5033589;28;20479;-62
2022/12/20 12:19:36;;;;;;;3.60;3.03;;;14.50;98.30;;;;;;5035621;28;20489;-62
2022/12/20 12:22:09;;;;;;;5.20;4.67;;;14.40;98.10;;;;;;5027573;28;20499;-61
2022/12/20 12:24:43;;;;;;;9.60;4.87;;;14.40;98.30;;;;;;5045037;28;20488;-61
2022/12/20 12:27:19;;;;;;;6.10;5.50;;;14.30;98.40;;;;;;5014755;28;20477;-61
2022/12/20 12:29:46;;;;;;;14.03;6.03;;;14.30;98.20;;;;;;5031882;28;20489;-61
2022/12/20 12:32:18;;;;;;;5.50;4.10;;;14.30;98.50;;;;;;5031007;28;20472;-61
2022/12/20 12:35:00;;;;;;;10.17;6.77;;;14.40;98.60;;;;;;5032805;28;20475;-62
2022/12/20 12:37:55;;;;;;;4.33;3.93;;;15.90;99.10;;;;;;5017992;28;21291;-61
2022/12/20 12:40:58;;;;;;;10.17;5.40;;;14.40;98.30;;;;;;5015435;28;20469;-62
2022/12/20 12:43:48;;;;;;;21.80;4.40;;;14.40;98.60;;;;;;5000149;28;20480;-62
2022/12/20 12:46:17;;;;;;;5.60;3.77;;;14.50;98.40;;;;;;5011265;28;20481;-62
2022/12/20 12:48:50;;;;;;;11.37;4.27;;;14.60;98.70;;;;;;5013140;28;20481;-62
2022/12/20 12:51:23;;;;;;;4.50;4.03;;;14.70;98.70;;;;;;5013327;28;20889;-62
2022/12/20 12:53:53;;;;;;;6.00;4.87;;;14.90;98.70;;;;;;5019089;28;20485;-62
2022/12/20 12:56:41;;;;;;;9.73;8.10;;;15.00;98.30;;;;;;5008072;28;20484;-62
2022/12/20 12:59:19;;;;;;;5.50;4.53;;;15.10;97.90;;;;;;5003400;28;20491;-62
2022/12/20 13:01:49;;;;;;;10.30;7.00;;;14.90;97.40;;;;;;5013775;28;21177;-61
2022/12/20 13:04:27;;;;;;;5.50;3.90;;;14.80;97.40;;;;;;5011654;28;20471;-61
2022/12/20 13:07:00;;;;;;;6.93;5.50;;;14.70;97.60;;;;;;5024748;28;20586;-62